Portada
METAR-TAF:

METAR-TAF

Aeroports :

Auburn/Lewiston Municipal Airport

Auburn-Lewiston, Maine, Estats Units d'Amèrica

latitud: 44-03N, longitud: 070-17W, altitud: 88 m

Observació

L'informe es va fer fa 30 minuts, a les 22:56 UTC
Vent 6 kt del Sud/Sud-Est
Temperatura 11°C
Humitat 43%
Pressió 1026 hPa
Visibilitat: 16.1 km
Cel clar

METAR: KLEW 242256Z AUTO 15006KT 10SM CLR 11/M01 A3031 RMK AO2 SLP271 T01061006

Hora: 19:26 (23:26 UTC)


TAF: manca

Observacions i pronòstics meteorològics de més de 4000 aeroports (METAR i TAF).

Les estacions disponibles són els punts grocs i vermells al mapa.

Posi el ratolí al punt desitjat per veure el nom de l'estació.

Feu clic per veure les observacions i els pronòstics meteorològics.

Per canviar el mapa: feu clic els botons verds amb una creu de color negre per apropar; al botó verd amb un guió per allunyar la imatge; o en les fletxes verdes per a mapes adjacents.


METAR-TAF: